Terminal Aerodrome Forecast
Issued by NWS

Home | Current Version | Previous Version | Text Only | Print | Product List | Glossary On
Versions: 1 2 3 4 5 6 7 8 9 10 11 12 13 14 15 16 17 18 19 20 21 22 23 24
000
FTUS46 KSEW 181121
TAFSEA
TAF
KSEA 181121Z 1812/1918 14008KT P6SM -RA BKN035 OVC050
     FM181600 18014G22KT P6SM -SHRA SCT030 OVC060
     FM190300 16010KT P6SM -SHRA BKN015 OVC030
     FM190600 16006KT 5SM -SHRA BR BKN006 OVC015=

USA.gov is the U.S. government's official web portal to all federal, state and local government web resources and services.